Barrancabermeja, Barrancabermeja Yariguies Airport (SKEJ)

NameBarrancabermeja Yariguies Airport
CityBarrancabermeja
CountryColombia
ICAOSKEJ
IATAEJA
Altitude126 m
CoordinatesGoogle Map
Live Air TrafficLiveATC.net
METARSKEJ 202100Z 19003KT 9999 FEW020 SCT200 31/24 A2975
2019-03-20 21:00:00 Wind: South (190°) 1.54 m/s - Visibility: > 10000 m - Temperature: 31 °C - Dew point: 24 °C - Humidity: 66.3% - Pressure: 1007.45 hPa

Sorry, no flights used the airport in this database.